Latest Weather Observations for Swan Hill

IDN60801

Issued at 11:13 pm EST Friday 16 April 2021 (issued every 10 minutes, with the page automatically refreshed every 10 minutes)

About weather observations | Map of weather stations | Latest weather observations for NSW | Other Formats
Station Details ID: 077094 Name: SWAN HILL AERODROME Lat: -35.38 Lon: 143.54 Height: 71.0 m
Data from the previous 72 hours. | See also: Recent months at Swan Hill
Date/Time
EST
Temp
°C
App
Temp
°C
Dew
Point
°C
Rel
Hum
%
Delta-T
°C
Wind Press
QNH
hPa
Press
MSL
hPa
Rain since
9am
mm
Dir  Spd
km/h
Gust
km/h
Spd
kts
Gust
kts
16/11:00pm 9.3 5.7 0.5 54 3.5 S 9 13 5 7 1025.2 1025.1 0.0
16/10:30pm 9.9 5.9 0.3 51 3.9 SSW 11 15 6 8 1025.0 1024.9 0.0
16/10:00pm 10.9 6.5 0.3 48 4.3 SSW 13 19 7 10 1024.8 1024.7 0.0
16/09:30pm 10.9 7.2 0.0 47 4.4 S 9 11 5 6 1024.6 1024.5 0.0
16/09:00pm 11.5 7.8 0.0 45 4.7 S 9 11 5 6 1024.3 1024.2 0.0
16/08:30pm 12.5 8.8 0.0 42 5.2 SSW 9 15 5 8 1024.2 1024.1 0.0
16/08:00pm 12.8 8.7 -0.1 41 5.3 SSW 11 13 6 7 1024.2 1024.1 0.0
16/07:30pm 13.3 9.2 0.0 40 5.5 SSW 11 15 6 8 1023.9 1023.8 0.0
16/07:00pm 14.2 10.1 -0.3 37 6.0 SSW 11 15 6 8 1023.8 1023.7 0.0
16/06:30pm 14.9 10.8 -0.4 35 6.4 SSW 11 15 6 8 1023.4 1023.3 0.0
16/06:00pm 16.5 12.5 0.6 34 6.9 S 11 15 6 8 1023.1 1023.0 0.0
16/05:30pm 17.8 13.4 0.5 31 7.6 SSW 13 20 7 11 1022.7 1022.6 0.0
16/05:00pm 18.5 13.3 0.2 29 8.0 SSW 17 24 9 13 1022.6 1022.5 0.0
16/04:30pm 19.1 14.0 0.7 29 8.2 SSW 17 26 9 14 1022.5 1022.4 0.0
16/04:00pm 19.0 14.0 1.1 30 8.0 SSW 17 26 9 14 1022.4 1022.3 0.0
16/03:30pm 19.2 14.1 0.8 29 8.2 S 17 24 9 13 1022.4 1022.3 0.0
16/03:00pm 18.8 13.7 0.9 30 8.0 S 17 26 9 14 1022.4 1022.3 0.0
16/02:30pm 18.9 13.5 1.0 30 8.0 SSW 19 24 10 13 1022.4 1022.3 0.0
16/02:00pm 18.3 12.8 0.4 30 7.8 SSW 19 26 10 14 1022.7 1022.6 0.0
16/01:30pm 17.8 12.7 0.9 32 7.5 SSW 17 28 9 15 1023.0 1022.9 0.0
16/01:00pm 18.4 13.9 1.9 33 7.5 S 15 24 8 13 1023.4 1023.3 0.0
16/12:30pm 18.0 13.4 1.5 33 7.4 SSE 15 24 8 13 1023.9 1023.8 0.0
16/12:00pm 17.3 12.8 2.1 36 6.8 SSW 15 24 8 13 1024.2 1024.1 0.0
16/11:30am 16.5 11.9 1.8 37 6.6 S 15 26 8 14 1024.4 1024.3 0.0
16/11:00am 16.3 12.0 3.0 41 6.0 S 15 24 8 13 1024.7 1024.6 0.0
16/10:30am 15.7 11.3 2.8 42 5.8 SSE 15 26 8 14 1024.7 1024.6 0.0
16/10:00am 15.0 10.4 3.8 47 5.1 SE 17 24 9 13 1024.8 1024.7 0.0
16/09:30am 14.1 10.5 5.2 55 4.2 SSE 13 19 7 10 1024.9 1024.8 0.0
16/09:00am 12.5 9.6 6.3 66 2.9 SSE 11 17 6 9 1024.8 1024.7 0.0
16/08:30am 11.0 9.0 7.3 78 1.8 S 7 11 4 6 1024.5 1024.4 0.0
16/08:00am 8.6 7.9 7.1 90 0.7 CALM 0 0 0 0 1023.9 1023.8 0.0
16/07:30am 6.6 5.7 5.9 95 0.3 CALM 0 0 0 0 1023.7 1023.6 0.0
16/07:00am 5.7 4.5 4.5 92 0.5 CALM 0 0 0 0 1023.3 1023.2 0.0
16/06:30am 6.6 4.4 5.4 92 0.5 S 6 7 3 4 1022.9 1022.8 0.0
16/06:00am 7.1 4.8 5.9 92 0.5 S 7 9 4 5 1022.5 1022.4 0.0
16/05:30am 7.6 5.0 6.2 91 0.6 SSW 9 11 5 6 1022.2 1022.1 0.0
16/05:00am 8.1 6.0 6.6 90 0.7 SSW 7 9 4 5 1022.0 1021.9 0.0
16/04:30am 8.6 6.2 6.9 89 0.8 SSW 9 13 5 7 1021.8 1021.7 0.0
16/04:00am 8.9 6.5 7.0 88 0.9 SSW 9 11 5 6 1021.4 1021.3 0.0
16/03:30am 9.0 6.6 7.0 87 0.9 SSW 9 13 5 7 1021.2 1021.1 0.0
16/03:00am 9.4 7.3 6.8 84 1.2 SSW 7 11 4 6 1020.9 1020.8 0.0
16/02:30am 10.0 7.2 6.9 81 1.5 SW 11 13 6 7 1020.9 1020.8 0.0
16/02:00am 10.3 7.5 6.8 79 1.6 SW 11 13 6 7 1020.8 1020.7 0.0
16/01:30am 11.2 8.4 7.1 76 2.0 SSW 11 15 6 8 1020.7 1020.6 0.0
16/01:00am 11.6 8.8 6.9 73 2.2 SW 11 15 6 8 1020.5 1020.4 0.0
16/12:30am 11.9 8.6 6.6 70 2.5 SW 13 17 7 9 1020.5 1020.4 0.0
16/12:00am 12.4 9.1 6.5 67 2.8 SW 13 17 7 9 1020.5 1020.4 0.0
 
Date/Time
EST
Temp
°C
App
Temp
°C
Dew
Point
°C
Rel
Hum
%
Delta-T
°C
Wind Press
QNH
hPa
Press
MSL
hPa
Rain since
9am
mm
Dir  Spd
km/h
Gust
km/h
Spd
kts
Gust
kts
15/11:30pm 13.0 10.0 6.1 63 3.3 SW 11 13 6 7 1020.5 1020.4 0.0
15/11:00pm 13.8 10.1 6.2 60 3.6 SW 15 20 8 11 1020.4 1020.3 0.0
15/10:30pm 14.6 10.5 6.2 57 4.0 SW 17 22 9 12 1020.1 1020.0 0.0
15/10:00pm 15.2 10.6 6.5 56 4.2 SW 20 24 11 13 1019.9 1019.8 0.0
15/09:30pm 15.3 11.6 6.3 55 4.4 SW 15 20 8 11 1019.7 1019.6 0.0
15/09:00pm 16.0 12.3 6.4 53 4.7 SW 15 17 8 9 1019.5 1019.4 0.0
15/08:30pm 16.9 12.8 6.4 50 5.2 SW 17 20 9 11 1019.1 1019.0 0.0
15/08:00pm 17.1 13.1 5.1 45 5.7 SW 15 19 8 10 1018.8 1018.7 0.0
15/07:30pm 15.1 10.9 3.6 46 5.3 WSW 15 17 8 9 1018.5 1018.4 0.0
15/07:00pm 16.1 12.1 2.9 41 6.0 WSW 13 15 7 8 1018.0 1018.0 0.0
15/06:30pm 17.7 13.3 2.5 36 7.0 WSW 15 19 8 10 1017.6 1017.6 0.0
15/06:00pm 18.7 14.0 2.9 35 7.3 WSW 17 19 9 10 1017.3 1017.3 0.0
15/05:30pm 20.5 14.5 3.3 32 8.2 WSW 24 30 13 16 1017.0 1016.9 0.0
15/05:00pm 20.5 13.3 2.8 31 8.3 WSW 30 37 16 20 1016.9 1016.8 0.0
15/04:30pm 21.2 14.5 3.4 31 8.5 WSW 28 37 15 20 1016.6 1016.5 0.0
15/04:00pm 21.1 13.9 2.9 30 8.6 WSW 30 41 16 22 1016.6 1016.5 0.0
15/03:30pm 22.1 16.5 3.3 29 9.0 WSW 22 39 12 21 1016.7 1016.6 0.0
15/03:00pm 21.5 15.0 2.7 29 8.9 WSW 26 39 14 21 1016.8 1016.7 0.0
15/02:30pm 21.3 15.2 3.0 30 8.7 WSW 24 37 13 20 1016.8 1016.7 0.0
15/02:00pm 20.8 14.4 3.1 31 8.4 WSW 26 35 14 19 1016.8 1016.7 0.0
15/01:30pm 20.3 14.3 3.1 32 8.1 WSW 24 35 13 19 1017.1 1017.0 0.0
15/01:00pm 20.3 14.3 3.1 32 8.1 WSW 24 41 13 22 1017.7 1017.7 0.0
15/12:30pm 19.8 13.4 3.1 33 7.9 WSW 26 39 14 21 1018.3 1018.2 0.0
15/12:00pm 19.4 12.7 3.6 35 7.5 W 28 43 15 23 1018.6 1018.5 0.0
15/11:30am 18.4 12.4 3.1 36 7.1 WSW 24 43 13 23 1019.0 1018.9 0.0
15/11:00am 17.8 12.3 4.0 40 6.5 WSW 22 32 12 17 1019.2 1019.1 0.0
15/10:30am 17.2 11.0 4.2 42 6.1 WSW 26 37 14 20 1019.2 1019.1 0.0
15/10:00am 17.0 12.5 5.9 48 5.4 W 19 24 10 13 1019.4 1019.3 0.0
15/09:30am 16.0 11.5 7.0 55 4.5 W 20 28 11 15 1019.6 1019.5 0.0
15/09:00am 15.0 11.5 7.3 60 3.8 W 15 22 8 12 1019.5 1019.4 0.0
15/08:30am 13.5 10.7 7.1 65 3.1 W 11 13 6 7 1019.2 1019.1 0.0
15/08:00am 11.5 9.1 6.8 73 2.2 W 9 11 5 6 1019.1 1019.0 0.0
15/07:30am 10.0 7.5 6.7 80 1.6 W 9 17 5 9 1018.8 1018.7 0.0
15/07:00am 8.6 6.4 6.4 86 1.0 WSW 7 11 4 6 1018.5 1018.4 0.0
15/06:30am 7.9 5.5 5.4 84 1.1 WSW 7 11 4 6 1018.3 1018.2 0.0
15/06:00am 8.0 5.3 5.8 86 1.0 WSW 9 11 5 6 1018.0 1018.0 0.0
15/05:30am 7.9 4.8 5.4 84 1.1 WSW 11 13 6 7 1018.0 1018.0 0.0
15/05:00am 8.3 5.3 6.1 86 1.0 W 11 15 6 8 1017.6 1017.6 0.0
15/04:30am 7.4 4.2 5.2 86 1.0 W 11 13 6 7 1017.6 1017.6 0.0
15/04:00am 8.1 5.0 5.6 84 1.1 WSW 11 13 6 7 1017.5 1017.5 0.0
15/03:30am 8.5 5.1 5.8 83 1.2 WSW 13 15 7 8 1017.5 1017.5 0.0
15/03:00am 9.6 6.2 6.0 78 1.7 WSW 13 15 7 8 1017.4 1017.4 0.0
15/02:30am 10.2 6.9 6.2 76 1.9 WSW 13 17 7 9 1017.6 1017.6 0.0
15/02:00am 10.4 7.1 6.2 75 2.0 WSW 13 17 7 9 1017.8 1017.8 0.0
15/01:30am 11.0 7.7 6.4 73 2.2 SW 13 17 7 9 1017.7 1017.7 0.0
15/01:00am 10.5 7.5 5.9 73 2.1 WSW 11 15 6 8 1017.7 1017.7 0.0
15/12:30am 11.0 7.7 6.4 73 2.2 WSW 13 17 7 9 1017.7 1017.7 0.0
15/12:00am 11.3 8.0 6.2 71 2.4 WSW 13 15 7 8 1017.8 1017.8 0.0
 
Date/Time
EST
Temp
°C
App
Temp
°C
Dew
Point
°C
Rel
Hum
%
Delta-T
°C
Wind Press
QNH
hPa
Press
MSL
hPa
Rain since
9am
mm
Dir  Spd
km/h
Gust
km/h
Spd
kts
Gust
kts
14/11:30pm 12.6 9.3 6.4 66 3.0 WSW 13 17 7 9 1017.8 1017.8 0.0
14/11:00pm 13.5 10.2 6.6 63 3.3 WSW 13 17 7 9 1017.6 1017.6 0.0
14/10:30pm 13.9 10.7 6.7 62 3.5 WSW 13 17 7 9 1017.6 1017.6 0.0
14/10:00pm 14.5 11.3 6.8 60 3.7 WSW 13 17 7 9 1017.7 1017.7 0.0
14/09:30pm 15.4 11.5 6.9 57 4.2 SW 17 22 9 12 1017.4 1017.4 0.0
14/09:00pm 16.3 11.8 7.0 54 4.6 SW 20 28 11 15 1016.9 1016.8 0.0
14/08:30pm 16.6 12.1 6.1 50 5.1 SW 19 22 10 12 1016.6 1016.5 0.0
14/08:00pm 16.7 12.6 4.4 44 5.8 SW 15 19 8 10 1016.3 1016.2 0.0
14/07:30pm 16.8 13.0 3.8 42 6.1 WSW 13 15 7 8 1015.8 1015.7 0.0
14/07:00pm 17.5 13.1 2.7 37 6.8 WSW 15 17 8 9 1015.4 1015.3 0.0
14/06:30pm 18.3 14.1 3.8 38 6.8 W 15 17 8 9 1015.0 1014.9 0.0
14/06:00pm 19.9 14.3 3.6 34 7.7 W 22 30 12 16 1014.8 1014.7 0.0
14/05:30pm 21.0 14.0 4.1 33 8.2 W 30 39 16 21 1014.4 1014.3 0.0
14/05:00pm 22.3 14.9 4.8 32 8.7 W 33 43 18 23 1013.9 1013.8 0.0
14/04:30pm 22.5 15.5 5.9 34 8.4 W 32 43 17 23 1013.8 1013.7 0.0
14/04:00pm 23.2 16.0 5.2 31 9.0 WSW 32 39 17 21 1013.7 1013.6 0.0
14/03:30pm 22.5 15.3 5.0 32 8.7 WSW 32 39 17 21 1013.7 1013.6 0.0
14/03:00pm 22.5 15.6 6.3 35 8.3 WSW 32 44 17 24 1013.7 1013.6 0.0
14/02:30pm 22.7 14.8 6.0 34 8.5 W 37 48 20 26 1013.7 1013.6 0.0
14/02:01pm 23.4 16.6 6.7 34 8.6 WSW 32 50 17 27 1013.4 1013.3 0.0
14/02:00pm 23.6 16.8 6.8 34 8.7 WSW 32 50 17 27 1013.5 1013.4 0.0
14/01:56pm 23.2 15.4 6.5 34 8.6 WSW 37 57 20 31 1013.6 1013.5 0.0
14/01:47pm 23.3 15.5 6.6 34 8.6 W 37 57 20 31 1013.3 1013.2 0.0
14/01:30pm 23.4 15.9 6.2 33 8.8 WSW 35 48 19 26 1013.5 1013.4 0.0
14/01:04pm 23.5 16.4 5.4 31 9.1 WSW 32 52 17 28 1013.9 1013.8 0.0
14/01:00pm 23.1 16.0 5.5 32 8.9 WSW 32 44 17 24 1013.9 1013.8 0.0
14/12:35pm 23.4 17.0 5.3 31 9.1 WSW 28 48 15 26 1014.1 1014.0 0.0
14/12:30pm 22.2 15.8 5.2 33 8.5 WSW 28 39 15 21 1014.3 1014.2 0.0
14/12:00pm 21.7 14.3 5.2 34 8.2 WSW 33 44 18 24 1014.5 1014.4 0.0
14/11:30am 21.7 14.8 6.4 37 7.8 WSW 32 41 17 22 1014.6 1014.5 0.0
14/11:00am 20.3 13.6 7.3 43 6.7 W 32 46 17 25 1014.8 1014.7 0.0
14/10:30am 19.4 13.1 7.5 46 6.1 WSW 30 41 16 22 1014.9 1014.8 0.0
14/10:04am 18.9 12.4 8.3 50 5.5 W 32 50 17 27 1015.1 1015.0 0.0
14/10:00am 18.7 11.6 8.1 50 5.5 W 35 50 19 27 1015.0 1014.9 0.0
14/09:30am 18.1 12.3 7.8 51 5.3 W 28 39 15 21 1014.9 1014.8 0.0
14/09:00am 17.5 12.8 7.8 53 4.9 W 22 30 12 16 1014.8 1014.7 0.0
14/08:30am 17.2 12.1 7.8 54 4.8 WSW 24 30 13 16 1014.3 1014.2 0.0
14/08:00am 16.5 13.3 8.5 59 4.1 W 15 20 8 11 1013.9 1013.8 0.0
14/07:30am 15.8 11.9 8.5 62 3.7 WSW 19 24 10 13 1013.7 1013.6 0.0
14/07:00am 15.8 11.5 9.2 65 3.4 SW 22 33 12 18 1013.1 1013.0 0.0
14/06:30am 16.2 11.2 9.4 64 3.5 SW 26 37 14 20 1012.7 1012.6 0.0
14/06:00am 17.0 10.7 9.7 62 3.8 SW 33 48 18 26 1011.9 1011.8 0.0
14/05:51am 18.2 12.8 6.4 46 5.9 W 24 43 13 23 1011.6 1011.5 0.0
14/05:30am 18.2 12.5 -1.1 27 8.2 NW 19 22 10 12 1011.0 1010.9 0.0
14/05:00am 18.5 13.2 -0.8 27 8.3 NNW 17 20 9 11 1010.6 1010.5 0.0
14/04:30am 18.4 13.4 -0.9 27 8.3 NNW 15 20 8 11 1010.2 1010.1 0.0
14/04:00am 19.6 13.6 -1.5 24 9.1 N 20 24 11 13 1009.8 1009.7 0.0
14/03:30am 19.8 13.5 -1.3 24 9.1 N 22 28 12 15 1009.9 1009.8 0.0
14/03:00am 19.9 13.9 -1.2 24 9.1 N 20 24 11 13 1010.1 1010.0 0.0
14/02:30am 20.1 14.2 -1.1 24 9.2 N 20 26 11 14 1010.4 1010.3 0.0
14/02:00am 20.2 14.0 -0.4 25 9.1 N 22 30 12 16 1010.8 1010.7 0.0
14/01:30am 20.2 14.3 -1.0 24 9.2 N 20 26 11 14 1011.1 1011.0 0.0
14/01:00am 20.0 14.2 -0.1 26 8.9 N 20 28 11 15 1011.4 1011.3 0.0
14/12:30am 19.5 13.2 1.5 30 8.2 N 24 33 13 18 1011.8 1011.7 0.0
14/12:00am 19.9 13.8 0.4 27 8.7 N 22 28 12 15 1011.8 1011.7 0.0
 
Date/Time
EST
Temp
°C
App
Temp
°C
Dew
Point
°C
Rel
Hum
%
Delta-T
°C
Wind Press
QNH
hPa
Press
MSL
hPa
Rain since
9am
mm
Dir  Spd
km/h
Gust
km/h
Spd
kts
Gust
kts
13/11:30pm 20.9 14.2 -1.0 23 9.6 N 24 32 13 17 1011.9 1011.8 0.0

Other formats

Comma delimited format used in spreadsheet applications
http://www.bom.gov.au/fwo/IDN60801/IDN60801.94843.axf

JavaScript Object Notation format (JSON) in row-major order
http://www.bom.gov.au/fwo/IDN60801/IDN60801.94843.json

Data quality

Most of these data are generated automatically and are frequently updated. Quality checks on data are not normally performed. It is possible for incorrect values to appear. Refer to information at About Latest Weather Observations and please check the disclaimer before using these data.